sensor_id;sensor_type;location;lat;lon;timestamp;P1;P2;P0
46240;PMS5003;31961;52.416;-0.732;2023-03-24T00:00:32;5;5;
46240;PMS5003;31961;52.416;-0.732;2023-03-24T00:02:59;7;6;
46240;PMS5003;31961;52.416;-0.732;2023-03-24T00:05:27;7;5;
46240;PMS5003;31961;52.416;-0.732;2023-03-24T00:08:43;5;5;
46240;PMS5003;31961;52.416;-0.732;2023-03-24T00:11:11;5;5;
46240;PMS5003;31961;52.416;-0.732;2023-03-24T00:13:38;6;6;
46240;PMS5003;31961;52.416;-0.732;2023-03-24T00:16:07;4;3;
46240;PMS5003;31961;52.416;-0.732;2023-03-24T00:18:36;4;4;
46240;PMS5003;31961;52.416;-0.732;2023-03-24T00:21:04;3;3;
46240;PMS5003;31961;52.416;-0.732;2023-03-24T00:23:33;4;3;
46240;PMS5003;31961;52.416;-0.732;2023-03-24T00:26:01;4;4;
46240;PMS5003;31961;52.416;-0.732;2023-03-24T00:28:30;5;5;
46240;PMS5003;31961;52.416;-0.732;2023-03-24T00:30:58;4;3;
46240;PMS5003;31961;52.416;-0.732;2023-03-24T00:33:27;6;6;
46240;PMS5003;31961;52.416;-0.732;2023-03-24T00:35:54;4;3;
46240;PMS5003;31961;52.416;-0.732;2023-03-24T00:38:22;7;3;
46240;PMS5003;31961;52.416;-0.732;2023-03-24T00:40:49;6;5;
46240;PMS5003;31961;52.416;-0.732;2023-03-24T00:43:16;8;4;
46240;PMS5003;31961;52.416;-0.732;2023-03-24T00:45:44;6;6;
46240;PMS5003;31961;52.416;-0.732;2023-03-24T00:48:12;7;4;
46240;PMS5003;31961;52.416;-0.732;2023-03-24T00:50:43;5;5;
46240;PMS5003;31961;52.416;-0.732;2023-03-24T00:53:11;4;3;
46240;PMS5003;31961;52.416;-0.732;2023-03-24T00:55:39;3;3;
46240;PMS5003;31961;52.416;-0.732;2023-03-24T00:58:07;4;4;
46240;PMS5003;31961;52.416;-0.732;2023-03-24T01:00:34;7;5;
46240;PMS5003;31961;52.416;-0.732;2023-03-24T01:03:02;5;4;
46240;PMS5003;31961;52.416;-0.732;2023-03-24T01:05:29;4;2;
46240;PMS5003;31961;52.416;-0.732;2023-03-24T01:07:57;5;4;
46240;PMS5003;31961;52.416;-0.732;2023-03-24T01:10:25;4;4;
46240;PMS5003;31961;52.416;-0.732;2023-03-24T01:12:54;6;4;
46240;PMS5003;31961;52.416;-0.732;2023-03-24T01:15:25;7;6;
46240;PMS5003;31961;52.416;-0.732;2023-03-24T01:17:54;2;1;
46240;PMS5003;31961;52.416;-0.732;2023-03-24T01:20:22;2;2;
46240;PMS5003;31961;52.416;-0.732;2023-03-24T01:22:50;4;2;
46240;PMS5003;31961;52.416;-0.732;2023-03-24T01:25:18;3;2;
46240;PMS5003;31961;52.416;-0.732;2023-03-24T01:27:47;3;2;
46240;PMS5003;31961;52.416;-0.732;2023-03-24T01:30:17;6;3;
46240;PMS5003;31961;52.416;-0.732;2023-03-24T01:32:47;5;4;
46240;PMS5003;31961;52.416;-0.732;2023-03-24T01:35:14;3;3;
46240;PMS5003;31961;52.416;-0.732;2023-03-24T01:37:42;3;2;
46240;PMS5003;31961;52.416;-0.732;2023-03-24T01:40:10;6;4;
46240;PMS5003;31961;52.416;-0.732;2023-03-24T01:42:44;5;3;
46240;PMS5003;31961;52.416;-0.732;2023-03-24T01:45:56;4;4;
46240;PMS5003;31961;52.416;-0.732;2023-03-24T01:48:28;8;4;
46240;PMS5003;31961;52.416;-0.732;2023-03-24T01:51:00;4;3;
46240;PMS5003;31961;52.416;-0.732;2023-03-24T01:53:30;2;2;
46240;PMS5003;31961;52.416;-0.732;2023-03-24T01:55:59;5;4;
46240;PMS5003;31961;52.416;-0.732;2023-03-24T01:58:31;5;5;
46240;PMS5003;31961;52.416;-0.732;2023-03-24T02:01:01;6;5;
46240;PMS5003;31961;52.416;-0.732;2023-03-24T02:03:28;7;2;
46240;PMS5003;31961;52.416;-0.732;2023-03-24T02:05:56;6;3;
46240;PMS5003;31961;52.416;-0.732;2023-03-24T02:08:25;4;3;
46240;PMS5003;31961;52.416;-0.732;2023-03-24T02:10:57;3;1;
46240;PMS5003;31961;52.416;-0.732;2023-03-24T02:13:26;5;3;
46240;PMS5003;31961;52.416;-0.732;2023-03-24T02:15:59;4;1;
46240;PMS5003;31961;52.416;-0.732;2023-03-24T02:18:41;3;3;
46240;PMS5003;31961;52.416;-0.732;2023-03-24T02:21:29;6;4;
46240;PMS5003;31961;52.416;-0.732;2023-03-24T02:24:46;4;4;
46240;PMS5003;31961;52.416;-0.732;2023-03-24T02:27:53;4;2;
46240;PMS5003;31961;52.416;-0.732;2023-03-24T02:31:39;5;3;
46240;PMS5003;31961;52.416;-0.732;2023-03-24T02:34:24;7;4;
46240;PMS5003;31961;52.416;-0.732;2023-03-24T02:37:25;8;4;
46240;PMS5003;31961;52.416;-0.732;2023-03-24T02:40:16;5;4;
46240;PMS5003;31961;52.416;-0.732;2023-03-24T02:42:52;7;7;
46240;PMS5003;31961;52.416;-0.732;2023-03-24T02:45:31;7;5;
46240;PMS5003;31961;52.416;-0.732;2023-03-24T02:48:06;7;5;
46240;PMS5003;31961;52.416;-0.732;2023-03-24T02:50:48;1;1;
46240;PMS5003;31961;52.416;-0.732;2023-03-24T02:53:20;5;5;
46240;PMS5003;31961;52.416;-0.732;2023-03-24T02:55:54;8;4;
46240;PMS5003;31961;52.416;-0.732;2023-03-24T02:58:27;7;4;
46240;PMS5003;31961;52.416;-0.732;2023-03-24T03:01:03;5;4;
46240;PMS5003;31961;52.416;-0.732;2023-03-24T03:03:35;4;4;
46240;PMS5003;31961;52.416;-0.732;2023-03-24T03:06:08;5;4;
46240;PMS5003;31961;52.416;-0.732;2023-03-24T03:08:41;4;3;
46240;PMS5003;31961;52.416;-0.732;2023-03-24T03:11:11;4;2;
46240;PMS5003;31961;52.416;-0.732;2023-03-24T03:13:42;5;4;
46240;PMS5003;31961;52.416;-0.732;2023-03-24T03:16:15;7;5;
46240;PMS5003;31961;52.416;-0.732;2023-03-24T03:18:48;8;6;
46240;PMS5003;31961;52.416;-0.732;2023-03-24T03:21:21;7;3;
46240;PMS5003;31961;52.416;-0.732;2023-03-24T03:23:52;9;7;
46240;PMS5003;31961;52.416;-0.732;2023-03-24T03:26:23;5;3;
46240;PMS5003;31961;52.416;-0.732;2023-03-24T03:28:54;8;4;
46240;PMS5003;31961;52.416;-0.732;2023-03-24T03:31:24;4;4;
46240;PMS5003;31961;52.416;-0.732;2023-03-24T03:33:58;8;6;
46240;PMS5003;31961;52.416;-0.732;2023-03-24T03:36:36;9;6;
46240;PMS5003;31961;52.416;-0.732;2023-03-24T03:39:11;7;2;
46240;PMS5003;31961;52.416;-0.732;2023-03-24T03:41:44;8;6;
46240;PMS5003;31961;52.416;-0.732;2023-03-24T03:44:11;8;3;
46240;PMS5003;31961;52.416;-0.732;2023-03-24T03:46:38;3;2;
46240;PMS5003;31961;52.416;-0.732;2023-03-24T03:49:06;6;4;
46240;PMS5003;31961;52.416;-0.732;2023-03-24T03:51:34;4;3;
46240;PMS5003;31961;52.416;-0.732;2023-03-24T03:54:02;3;3;
46240;PMS5003;31961;52.416;-0.732;2023-03-24T03:56:32;4;4;
46240;PMS5003;31961;52.416;-0.732;2023-03-24T03:59:01;8;7;
46240;PMS5003;31961;52.416;-0.732;2023-03-24T04:01:29;7;5;
46240;PMS5003;31961;52.416;-0.732;2023-03-24T04:04:02;8;5;
46240;PMS5003;31961;52.416;-0.732;2023-03-24T04:06:38;4;4;
46240;PMS5003;31961;52.416;-0.732;2023-03-24T04:09:17;5;4;
46240;PMS5003;31961;52.416;-0.732;2023-03-24T04:12:01;6;4;
46240;PMS5003;31961;52.416;-0.732;2023-03-24T04:14:43;3;3;
46240;PMS5003;31961;52.416;-0.732;2023-03-24T04:17:25;6;3;
46240;PMS5003;31961;52.416;-0.732;2023-03-24T04:20:06;7;4;
46240;PMS5003;31961;52.416;-0.732;2023-03-24T04:22:41;8;5;
46240;PMS5003;31961;52.416;-0.732;2023-03-24T04:25:23;4;3;
46240;PMS5003;31961;52.416;-0.732;2023-03-24T04:27:58;5;4;
46240;PMS5003;31961;52.416;-0.732;2023-03-24T04:30:31;7;5;
46240;PMS5003;31961;52.416;-0.732;2023-03-24T04:33:04;6;5;
46240;PMS5003;31961;52.416;-0.732;2023-03-24T04:35:35;10;5;
46240;PMS5003;31961;52.416;-0.732;2023-03-24T04:38:06;6;5;
46240;PMS5003;31961;52.416;-0.732;2023-03-24T04:40:36;5;5;
46240;PMS5003;31961;52.416;-0.732;2023-03-24T04:43:07;8;6;
46240;PMS5003;31961;52.416;-0.732;2023-03-24T04:45:39;7;3;
46240;PMS5003;31961;52.416;-0.732;2023-03-24T04:48:06;5;4;
46240;PMS5003;31961;52.416;-0.732;2023-03-24T04:50:38;7;4;
46240;PMS5003;31961;52.416;-0.732;2023-03-24T04:53:07;6;3;
46240;PMS5003;31961;52.416;-0.732;2023-03-24T04:55:44;8;4;
46240;PMS5003;31961;52.416;-0.732;2023-03-24T04:58:22;6;5;
46240;PMS5003;31961;52.416;-0.732;2023-03-24T05:00:50;5;5;
46240;PMS5003;31961;52.416;-0.732;2023-03-24T05:03:18;9;5;
46240;PMS5003;31961;52.416;-0.732;2023-03-24T05:05:46;5;2;
46240;PMS5003;31961;52.416;-0.732;2023-03-24T05:08:14;11;8;
46240;PMS5003;31961;52.416;-0.732;2023-03-24T05:10:43;5;3;
46240;PMS5003;31961;52.416;-0.732;2023-03-24T05:13:11;6;3;
46240;PMS5003;31961;52.416;-0.732;2023-03-24T05:15:38;4;3;
46240;PMS5003;31961;52.416;-0.732;2023-03-24T05:18:05;5;3;
46240;PMS5003;31961;52.416;-0.732;2023-03-24T05:20:33;3;3;
46240;PMS5003;31961;52.416;-0.732;2023-03-24T05:23:01;8;6;
46240;PMS5003;31961;52.416;-0.732;2023-03-24T05:25:28;7;5;
46240;PMS5003;31961;52.416;-0.732;2023-03-24T05:27:55;8;6;
46240;PMS5003;31961;52.416;-0.732;2023-03-24T05:30:22;8;4;
46240;PMS5003;31961;52.416;-0.732;2023-03-24T05:32:49;5;3;
46240;PMS5003;31961;52.416;-0.732;2023-03-24T05:35:16;5;5;
46240;PMS5003;31961;52.416;-0.732;2023-03-24T05:37:44;5;3;
46240;PMS5003;31961;52.416;-0.732;2023-03-24T05:40:11;7;5;
46240;PMS5003;31961;52.416;-0.732;2023-03-24T05:42:39;4;4;
46240;PMS5003;31961;52.416;-0.732;2023-03-24T05:45:07;9;5;
46240;PMS5003;31961;52.416;-0.732;2023-03-24T05:47:36;7;4;
46240;PMS5003;31961;52.416;-0.732;2023-03-24T05:50:04;4;3;
46240;PMS5003;31961;52.416;-0.732;2023-03-24T05:52:32;7;6;
46240;PMS5003;31961;52.416;-0.732;2023-03-24T05:55:00;6;3;
46240;PMS5003;31961;52.416;-0.732;2023-03-24T05:57:28;7;5;
46240;PMS5003;31961;52.416;-0.732;2023-03-24T05:59:55;4;3;
46240;PMS5003;31961;52.416;-0.732;2023-03-24T06:02:23;4;2;
46240;PMS5003;31961;52.416;-0.732;2023-03-24T06:04:50;1;1;
46240;PMS5003;31961;52.416;-0.732;2023-03-24T06:07:18;7;4;
46240;PMS5003;31961;52.416;-0.732;2023-03-24T06:09:45;4;4;
46240;PMS5003;31961;52.416;-0.732;2023-03-24T06:12:13;5;4;
46240;PMS5003;31961;52.416;-0.732;2023-03-24T06:14:40;8;4;
46240;PMS5003;31961;52.416;-0.732;2023-03-24T06:17:08;2;1;
46240;PMS5003;31961;52.416;-0.732;2023-03-24T06:19:36;5;4;
46240;PMS5003;31961;52.416;-0.732;2023-03-24T06:22:03;8;4;
46240;PMS5003;31961;52.416;-0.732;2023-03-24T06:24:30;6;2;
46240;PMS5003;31961;52.416;-0.732;2023-03-24T06:26:57;6;3;
46240;PMS5003;31961;52.416;-0.732;2023-03-24T06:29:25;4;4;
46240;PMS5003;31961;52.416;-0.732;2023-03-24T06:31:52;3;3;
46240;PMS5003;31961;52.416;-0.732;2023-03-24T06:34:19;3;2;
46240;PMS5003;31961;52.416;-0.732;2023-03-24T06:36:47;5;3;
46240;PMS5003;31961;52.416;-0.732;2023-03-24T06:39:14;6;4;
46240;PMS5003;31961;52.416;-0.732;2023-03-24T06:41:42;5;2;
46240;PMS5003;31961;52.416;-0.732;2023-03-24T06:44:09;5;3;
46240;PMS5003;31961;52.416;-0.732;2023-03-24T06:46:37;1;1;
46240;PMS5003;31961;52.416;-0.732;2023-03-24T06:49:05;4;2;
46240;PMS5003;31961;52.416;-0.732;2023-03-24T06:51:32;5;3;
46240;PMS5003;31961;52.416;-0.732;2023-03-24T06:54:00;6;3;
46240;PMS5003;31961;52.416;-0.732;2023-03-24T06:56:27;1;1;
46240;PMS5003;31961;52.416;-0.732;2023-03-24T06:58:55;4;3;
46240;PMS5003;31961;52.416;-0.732;2023-03-24T07:01:22;6;3;
46240;PMS5003;31961;52.416;-0.732;2023-03-24T07:03:50;4;3;
46240;PMS5003;31961;52.416;-0.732;2023-03-24T07:06:18;4;3;
46240;PMS5003;31961;52.416;-0.732;2023-03-24T07:08:45;2;2;
46240;PMS5003;31961;52.416;-0.732;2023-03-24T07:11:12;8;4;
46240;PMS5003;31961;52.416;-0.732;2023-03-24T07:13:40;4;4;
46240;PMS5003;31961;52.416;-0.732;2023-03-24T07:16:07;4;2;
46240;PMS5003;31961;52.416;-0.732;2023-03-24T07:18:35;5;3;
46240;PMS5003;31961;52.416;-0.732;2023-03-24T07:21:03;2;2;
46240;PMS5003;31961;52.416;-0.732;2023-03-24T07:23:30;6;4;
46240;PMS5003;31961;52.416;-0.732;2023-03-24T07:25:57;1;1;
46240;PMS5003;31961;52.416;-0.732;2023-03-24T07:28:25;3;3;
46240;PMS5003;31961;52.416;-0.732;2023-03-24T07:30:52;3;2;
46240;PMS5003;31961;52.416;-0.732;2023-03-24T07:33:20;4;3;
46240;PMS5003;31961;52.416;-0.732;2023-03-24T07:35:48;1;1;
46240;PMS5003;31961;52.416;-0.732;2023-03-24T07:38:19;6;4;
46240;PMS5003;31961;52.416;-0.732;2023-03-24T07:40:46;3;3;
46240;PMS5003;31961;52.416;-0.732;2023-03-24T07:43:14;1;1;
46240;PMS5003;31961;52.416;-0.732;2023-03-24T07:45:42;4;3;
46240;PMS5003;31961;52.416;-0.732;2023-03-24T07:48:10;2;1;
46240;PMS5003;31961;52.416;-0.732;2023-03-24T07:50:37;7;2;
46240;PMS5003;31961;52.416;-0.732;2023-03-24T07:53:05;10;5;
46240;PMS5003;31961;52.416;-0.732;2023-03-24T07:55:32;8;4;
46240;PMS5003;31961;52.416;-0.732;2023-03-24T07:58:00;5;3;
46240;PMS5003;31961;52.416;-0.732;2023-03-24T08:00:27;7;4;
46240;PMS5003;31961;52.416;-0.732;2023-03-24T08:02:55;7;4;
46240;PMS5003;31961;52.416;-0.732;2023-03-24T08:05:22;8;5;
46240;PMS5003;31961;52.416;-0.732;2023-03-24T08:07:50;5;3;
46240;PMS5003;31961;52.416;-0.732;2023-03-24T08:10:19;7;2;
46240;PMS5003;31961;52.416;-0.732;2023-03-24T08:12:48;4;3;
46240;PMS5003;31961;52.416;-0.732;2023-03-24T08:15:16;6;5;
46240;PMS5003;31961;52.416;-0.732;2023-03-24T08:17:43;5;3;
46240;PMS5003;31961;52.416;-0.732;2023-03-24T08:20:11;5;4;
46240;PMS5003;31961;52.416;-0.732;2023-03-24T08:22:39;4;3;
46240;PMS5003;31961;52.416;-0.732;2023-03-24T08:25:08;4;3;
46240;PMS5003;31961;52.416;-0.732;2023-03-24T08:27:37;3;3;
46240;PMS5003;31961;52.416;-0.732;2023-03-24T08:30:07;6;6;
46240;PMS5003;31961;52.416;-0.732;2023-03-24T08:32:35;3;1;
46240;PMS5003;31961;52.416;-0.732;2023-03-24T08:35:03;3;3;
46240;PMS5003;31961;52.416;-0.732;2023-03-24T08:37:31;6;3;
46240;PMS5003;31961;52.416;-0.732;2023-03-24T08:39:58;5;4;
46240;PMS5003;31961;52.416;-0.732;2023-03-24T08:42:26;2;2;
46240;PMS5003;31961;52.416;-0.732;2023-03-24T08:44:53;7;4;
46240;PMS5003;31961;52.416;-0.732;2023-03-24T08:47:21;4;4;
46240;PMS5003;31961;52.416;-0.732;2023-03-24T08:49:48;2;2;
46240;PMS5003;31961;52.416;-0.732;2023-03-24T08:52:16;4;3;
46240;PMS5003;31961;52.416;-0.732;2023-03-24T08:54:43;4;3;
46240;PMS5003;31961;52.416;-0.732;2023-03-24T08:57:11;5;2;
46240;PMS5003;31961;52.416;-0.732;2023-03-24T08:59:39;7;5;
46240;PMS5003;31961;52.416;-0.732;2023-03-24T09:02:07;5;3;
46240;PMS5003;31961;52.416;-0.732;2023-03-24T09:04:35;2;1;
46240;PMS5003;31961;52.416;-0.732;2023-03-24T09:07:03;3;2;
46240;PMS5003;31961;52.416;-0.732;2023-03-24T09:09:30;8;4;
46240;PMS5003;31961;52.416;-0.732;2023-03-24T09:11:59;3;2;
46240;PMS5003;31961;52.416;-0.732;2023-03-24T09:14:26;5;2;
46240;PMS5003;31961;52.416;-0.732;2023-03-24T09:16:54;5;3;
46240;PMS5003;31961;52.416;-0.732;2023-03-24T09:19:21;3;2;
46240;PMS5003;31961;52.416;-0.732;2023-03-24T09:21:49;4;1;
46240;PMS5003;31961;52.416;-0.732;2023-03-24T09:24:16;5;5;
46240;PMS5003;31961;52.416;-0.732;2023-03-24T09:26:43;3;3;
46240;PMS5003;31961;52.416;-0.732;2023-03-24T09:29:11;4;2;
46240;PMS5003;31961;52.416;-0.732;2023-03-24T09:31:39;4;4;
46240;PMS5003;31961;52.416;-0.732;2023-03-24T09:34:06;3;1;
46240;PMS5003;31961;52.416;-0.732;2023-03-24T09:36:34;3;2;
46240;PMS5003;31961;52.416;-0.732;2023-03-24T09:39:02;3;3;
46240;PMS5003;31961;52.416;-0.732;2023-03-24T09:41:29;5;3;
46240;PMS5003;31961;52.416;-0.732;2023-03-24T09:43:58;2;1;
46240;PMS5003;31961;52.416;-0.732;2023-03-24T09:46:30;7;3;
46240;PMS5003;31961;52.416;-0.732;2023-03-24T09:49:01;2;2;
46240;PMS5003;31961;52.416;-0.732;2023-03-24T09:51:30;2;2;
46240;PMS5003;31961;52.416;-0.732;2023-03-24T09:54:03;8;6;
46240;PMS5003;31961;52.416;-0.732;2023-03-24T09:56:41;5;3;
46240;PMS5003;31961;52.416;-0.732;2023-03-24T09:59:12;4;2;
46240;PMS5003;31961;52.416;-0.732;2023-03-24T10:01:43;2;2;
46240;PMS5003;31961;52.416;-0.732;2023-03-24T10:04:12;3;2;
46240;PMS5003;31961;52.416;-0.732;2023-03-24T10:06:41;4;2;
46240;PMS5003;31961;52.416;-0.732;2023-03-24T10:09:20;4;3;
46240;PMS5003;31961;52.416;-0.732;2023-03-24T10:11:52;4;3;
46240;PMS5003;31961;52.416;-0.732;2023-03-24T10:14:38;2;1;
46240;PMS5003;31961;52.416;-0.732;2023-03-24T10:17:16;3;2;
46240;PMS5003;31961;52.416;-0.732;2023-03-24T10:19:51;2;1;
46240;PMS5003;31961;52.416;-0.732;2023-03-24T10:22:26;3;3;
46240;PMS5003;31961;52.416;-0.732;2023-03-24T10:25:01;3;2;
46240;PMS5003;31961;52.416;-0.732;2023-03-24T10:27:40;4;3;
46240;PMS5003;31961;52.416;-0.732;2023-03-24T10:30:13;2;0;
46240;PMS5003;31961;52.416;-0.732;2023-03-24T10:32:42;2;1;
46240;PMS5003;31961;52.416;-0.732;2023-03-24T10:35:13;3;2;
46240;PMS5003;31961;52.416;-0.732;2023-03-24T10:37:44;2;2;
46240;PMS5003;31961;52.416;-0.732;2023-03-24T10:40:13;1;1;
46240;PMS5003;31961;52.416;-0.732;2023-03-24T10:42:42;3;3;
46240;PMS5003;31961;52.416;-0.732;2023-03-24T10:45:13;3;1;
46240;PMS5003;31961;52.416;-0.732;2023-03-24T10:47:50;2;2;
46240;PMS5003;31961;52.416;-0.732;2023-03-24T10:50:22;4;2;
46240;PMS5003;31961;52.416;-0.732;2023-03-24T10:52:51;3;3;
46240;PMS5003;31961;52.416;-0.732;2023-03-24T10:55:19;2;0;
46240;PMS5003;31961;52.416;-0.732;2023-03-24T10:57:48;1;1;
46240;PMS5003;31961;52.416;-0.732;2023-03-24T11:00:20;1;1;
46240;PMS5003;31961;52.416;-0.732;2023-03-24T11:02:53;3;1;
46240;PMS5003;31961;52.416;-0.732;2023-03-24T11:05:25;1;1;
46240;PMS5003;31961;52.416;-0.732;2023-03-24T11:07:57;3;2;
46240;PMS5003;31961;52.416;-0.732;2023-03-24T11:10:37;3;2;
46240;PMS5003;31961;52.416;-0.732;2023-03-24T11:13:07;5;2;
46240;PMS5003;31961;52.416;-0.732;2023-03-24T11:15:52;2;2;
46240;PMS5003;31961;52.416;-0.732;2023-03-24T11:18:21;1;1;
46240;PMS5003;31961;52.416;-0.732;2023-03-24T11:20:51;3;3;
46240;PMS5003;31961;52.416;-0.732;2023-03-24T11:23:24;3;3;
46240;PMS5003;31961;52.416;-0.732;2023-03-24T11:26:01;5;1;
46240;PMS5003;31961;52.416;-0.732;2023-03-24T11:28:34;1;1;
46240;PMS5003;31961;52.416;-0.732;2023-03-24T11:31:05;3;1;
46240;PMS5003;31961;52.416;-0.732;2023-03-24T11:33:39;2;1;
46240;PMS5003;31961;52.416;-0.732;2023-03-24T11:36:43;1;1;
46240;PMS5003;31961;52.416;-0.732;2023-03-24T11:39:15;2;2;
46240;PMS5003;31961;52.416;-0.732;2023-03-24T11:41:50;3;2;
46240;PMS5003;31961;52.416;-0.732;2023-03-24T11:44:24;2;2;
46240;PMS5003;31961;52.416;-0.732;2023-03-24T11:46:52;3;2;
46240;PMS5003;31961;52.416;-0.732;2023-03-24T11:49:24;1;1;
46240;PMS5003;31961;52.416;-0.732;2023-03-24T11:51:55;3;2;
46240;PMS5003;31961;52.416;-0.732;2023-03-24T11:54:24;1;0;
46240;PMS5003;31961;52.416;-0.732;2023-03-24T11:56:55;0;0;
46240;PMS5003;31961;52.416;-0.732;2023-03-24T11:59:26;3;3;
46240;PMS5003;31961;52.416;-0.732;2023-03-24T12:02:01;1;1;
46240;PMS5003;31961;52.416;-0.732;2023-03-24T12:04:40;0;0;
46240;PMS5003;31961;52.416;-0.732;2023-03-24T12:07:30;1;1;
46240;PMS5003;31961;52.416;-0.732;2023-03-24T12:10:10;1;0;
46240;PMS5003;31961;52.416;-0.732;2023-03-24T12:12:49;1;1;
46240;PMS5003;31961;52.416;-0.732;2023-03-24T12:15:29;1;1;
46240;PMS5003;31961;52.416;-0.732;2023-03-24T12:18:07;1;1;
46240;PMS5003;31961;52.416;-0.732;2023-03-24T12:20:45;1;1;
46240;PMS5003;31961;52.416;-0.732;2023-03-24T12:23:22;2;1;
46240;PMS5003;31961;52.416;-0.732;2023-03-24T12:25:56;1;1;
46240;PMS5003;31961;52.416;-0.732;2023-03-24T12:28:38;1;1;
46240;PMS5003;31961;52.416;-0.732;2023-03-24T12:31:23;5;1;
46240;PMS5003;31961;52.416;-0.732;2023-03-24T12:34:02;1;1;
46240;PMS5003;31961;52.416;-0.732;2023-03-24T12:36:38;1;1;
46240;PMS5003;31961;52.416;-0.732;2023-03-24T12:39:13;1;1;
46240;PMS5003;31961;52.416;-0.732;2023-03-24T12:41:49;2;1;
46240;PMS5003;31961;52.416;-0.732;2023-03-24T12:44:34;1;1;
46240;PMS5003;31961;52.416;-0.732;2023-03-24T12:47:15;1;1;
46240;PMS5003;31961;52.416;-0.732;2023-03-24T12:49:58;2;1;
46240;PMS5003;31961;52.416;-0.732;2023-03-24T12:52:44;1;1;
46240;PMS5003;31961;52.416;-0.732;2023-03-24T12:55:22;2;1;
46240;PMS5003;31961;52.416;-0.732;2023-03-24T12:57:56;1;0;
46240;PMS5003;31961;52.416;-0.732;2023-03-24T13:00:30;1;1;
46240;PMS5003;31961;52.416;-0.732;2023-03-24T13:03:00;2;1;
46240;PMS5003;31961;52.416;-0.732;2023-03-24T13:05:32;1;1;
46240;PMS5003;31961;52.416;-0.732;2023-03-24T13:08:09;1;1;
46240;PMS5003;31961;52.416;-0.732;2023-03-24T13:10:40;2;1;
46240;PMS5003;31961;52.416;-0.732;2023-03-24T13:13:09;1;1;
46240;PMS5003;31961;52.416;-0.732;2023-03-24T13:15:42;2;2;
46240;PMS5003;31961;52.416;-0.732;2023-03-24T13:18:16;1;1;
46240;PMS5003;31961;52.416;-0.732;2023-03-24T13:20:54;0;0;
46240;PMS5003;31961;52.416;-0.732;2023-03-24T13:23:30;1;1;
46240;PMS5003;31961;52.416;-0.732;2023-03-24T13:26:09;2;1;
46240;PMS5003;31961;52.416;-0.732;2023-03-24T13:28:46;0;0;
46240;PMS5003;31961;52.416;-0.732;2023-03-24T13:31:22;0;0;
46240;PMS5003;31961;52.416;-0.732;2023-03-24T13:33:52;0;0;
46240;PMS5003;31961;52.416;-0.732;2023-03-24T13:36:26;0;0;
46240;PMS5003;31961;52.416;-0.732;2023-03-24T13:39:06;0;0;
46240;PMS5003;31961;52.416;-0.732;2023-03-24T13:41:39;0;0;
46240;PMS5003;31961;52.416;-0.732;2023-03-24T13:44:14;0;0;
46240;PMS5003;31961;52.416;-0.732;2023-03-24T13:46:58;0;0;
46240;PMS5003;31961;52.416;-0.732;2023-03-24T13:49:31;0;0;
46240;PMS5003;31961;52.416;-0.732;2023-03-24T13:52:01;0;0;
46240;PMS5003;31961;52.416;-0.732;2023-03-24T13:54:30;2;1;
46240;PMS5003;31961;52.416;-0.732;2023-03-24T13:57:02;0;0;
46240;PMS5003;31961;52.416;-0.732;2023-03-24T13:59:38;0;0;
46240;PMS5003;31961;52.416;-0.732;2023-03-24T14:02:10;1;1;
46240;PMS5003;31961;52.416;-0.732;2023-03-24T14:04:46;1;1;
46240;PMS5003;31961;52.416;-0.732;2023-03-24T14:07:47;0;0;
46240;PMS5003;31961;52.416;-0.732;2023-03-24T14:10:48;1;1;
46240;PMS5003;31961;52.416;-0.732;2023-03-24T14:13:20;0;0;
46240;PMS5003;31961;52.416;-0.732;2023-03-24T14:15:58;0;0;
46240;PMS5003;31961;52.416;-0.732;2023-03-24T14:18:51;1;1;
46240;PMS5003;31961;52.416;-0.732;2023-03-24T14:21:34;0;0;
46240;PMS5003;31961;52.416;-0.732;2023-03-24T14:24:08;0;0;
46240;PMS5003;31961;52.416;-0.732;2023-03-24T14:26:41;0;0;
46240;PMS5003;31961;52.416;-0.732;2023-03-24T14:29:25;0;0;
46240;PMS5003;31961;52.416;-0.732;2023-03-24T14:32:03;1;1;
46240;PMS5003;31961;52.416;-0.732;2023-03-24T14:34:31;0;0;
46240;PMS5003;31961;52.416;-0.732;2023-03-24T14:37:00;1;1;
46240;PMS5003;31961;52.416;-0.732;2023-03-24T14:39:30;1;1;
46240;PMS5003;31961;52.416;-0.732;2023-03-24T14:42:08;0;0;
46240;PMS5003;31961;52.416;-0.732;2023-03-24T14:44:54;0;0;
46240;PMS5003;31961;52.416;-0.732;2023-03-24T14:47:23;1;1;
46240;PMS5003;31961;52.416;-0.732;2023-03-24T14:49:52;1;0;
46240;PMS5003;31961;52.416;-0.732;2023-03-24T14:52:22;1;1;
46240;PMS5003;31961;52.416;-0.732;2023-03-24T14:54:53;1;1;
46240;PMS5003;31961;52.416;-0.732;2023-03-24T14:57:24;1;1;
46240;PMS5003;31961;52.416;-0.732;2023-03-24T14:59:54;2;0;
46240;PMS5003;31961;52.416;-0.732;2023-03-24T15:02:29;4;1;
46240;PMS5003;31961;52.416;-0.732;2023-03-24T15:05:17;2;1;
46240;PMS5003;31961;52.416;-0.732;2023-03-24T15:07:57;2;1;
46240;PMS5003;31961;52.416;-0.732;2023-03-24T15:10:30;2;0;
46240;PMS5003;31961;52.416;-0.732;2023-03-24T15:13:01;2;0;
46240;PMS5003;31961;52.416;-0.732;2023-03-24T15:15:28;1;1;
46240;PMS5003;31961;52.416;-0.732;2023-03-24T15:17:56;3;0;
46240;PMS5003;31961;52.416;-0.732;2023-03-24T15:20:24;1;1;
46240;PMS5003;31961;52.416;-0.732;2023-03-24T15:22:54;0;0;
46240;PMS5003;31961;52.416;-0.732;2023-03-24T15:25:23;0;0;
46240;PMS5003;31961;52.416;-0.732;2023-03-24T15:27:51;1;1;
46240;PMS5003;31961;52.416;-0.732;2023-03-24T15:30:19;2;1;
46240;PMS5003;31961;52.416;-0.732;2023-03-24T15:32:47;0;0;
46240;PMS5003;31961;52.416;-0.732;2023-03-24T15:35:15;2;1;
46240;PMS5003;31961;52.416;-0.732;2023-03-24T15:37:47;0;0;
46240;PMS5003;31961;52.416;-0.732;2023-03-24T15:40:36;0;0;
46240;PMS5003;31961;52.416;-0.732;2023-03-24T15:43:13;1;1;
46240;PMS5003;31961;52.416;-0.732;2023-03-24T15:45:44;1;0;
46240;PMS5003;31961;52.416;-0.732;2023-03-24T15:48:16;1;1;
46240;PMS5003;31961;52.416;-0.732;2023-03-24T15:50:54;0;0;
46240;PMS5003;31961;52.416;-0.732;2023-03-24T15:53:26;1;1;
46240;PMS5003;31961;52.416;-0.732;2023-03-24T15:56:04;0;0;
46240;PMS5003;31961;52.416;-0.732;2023-03-24T15:58:56;0;0;
46240;PMS5003;31961;52.416;-0.732;2023-03-24T16:01:39;0;0;
46240;PMS5003;31961;52.416;-0.732;2023-03-24T16:04:10;0;0;
46240;PMS5003;31961;52.416;-0.732;2023-03-24T16:06:42;1;0;
46240;PMS5003;31961;52.416;-0.732;2023-03-24T16:09:14;2;2;
46240;PMS5003;31961;52.416;-0.732;2023-03-24T16:11:42;0;0;
46240;PMS5003;31961;52.416;-0.732;2023-03-24T16:14:20;2;1;
46240;PMS5003;31961;52.416;-0.732;2023-03-24T16:16:51;1;1;
46240;PMS5003;31961;52.416;-0.732;2023-03-24T16:19:19;5;1;
46240;PMS5003;31961;52.416;-0.732;2023-03-24T16:21:47;1;0;
46240;PMS5003;31961;52.416;-0.732;2023-03-24T16:24:14;2;2;
46240;PMS5003;31961;52.416;-0.732;2023-03-24T16:26:42;1;0;
46240;PMS5003;31961;52.416;-0.732;2023-03-24T16:29:13;1;0;
46240;PMS5003;31961;52.416;-0.732;2023-03-24T16:31:42;2;1;
46240;PMS5003;31961;52.416;-0.732;2023-03-24T16:34:10;7;1;
46240;PMS5003;31961;52.416;-0.732;2023-03-24T16:36:38;4;2;
46240;PMS5003;31961;52.416;-0.732;2023-03-24T16:39:08;3;1;
46240;PMS5003;31961;52.416;-0.732;2023-03-24T16:41:40;3;2;
46240;PMS5003;31961;52.416;-0.732;2023-03-24T16:44:07;1;1;
46240;PMS5003;31961;52.416;-0.732;2023-03-24T16:46:35;0;0;
46240;PMS5003;31961;52.416;-0.732;2023-03-24T16:49:03;2;1;
46240;PMS5003;31961;52.416;-0.732;2023-03-24T16:51:32;1;1;
46240;PMS5003;31961;52.416;-0.732;2023-03-24T16:54:00;1;1;
46240;PMS5003;31961;52.416;-0.732;2023-03-24T16:56:28;1;0;
46240;PMS5003;31961;52.416;-0.732;2023-03-24T16:58:55;2;2;
46240;PMS5003;31961;52.416;-0.732;2023-03-24T17:01:26;2;1;
46240;PMS5003;31961;52.416;-0.732;2023-03-24T17:03:56;3;3;
46240;PMS5003;31961;52.416;-0.732;2023-03-24T17:06:25;4;3;